sensor_id;sensor_type;location;lat;lon;timestamp;pressure;altitude;pressure_sealevel;temperature;humidity
20015;BME280;61787;42.022;23.078;2023-04-04T00:00:31;95381.94;;;8.29;100.00
20015;BME280;61787;42.022;23.078;2023-04-04T00:01:33;95389.53;;;8.27;100.00
20015;BME280;61787;42.022;23.078;2023-04-04T00:02:34;95386.50;;;8.28;100.00
20015;BME280;61787;42.022;23.078;2023-04-04T00:03:36;95384.97;;;8.27;100.00
20015;BME280;61787;42.022;23.078;2023-04-04T00:04:38;95384.91;;;8.24;100.00
20015;BME280;61787;42.022;23.078;2023-04-04T00:05:39;95388.75;;;8.26;100.00
20015;BME280;61787;42.022;23.078;2023-04-04T00:06:41;95388.00;;;8.26;100.00
20015;BME280;61787;42.022;23.078;2023-04-04T00:07:46;95389.13;;;8.25;100.00
20015;BME280;61787;42.022;23.078;2023-04-04T00:08:48;95389.97;;;8.29;100.00
20015;BME280;61787;42.022;23.078;2023-04-04T00:09:49;95391.06;;;8.28;100.00
20015;BME280;61787;42.022;23.078;2023-04-04T00:10:59;95393.84;;;8.31;100.00
20015;BME280;61787;42.022;23.078;2023-04-04T00:12:00;95391.94;;;8.32;100.00
20015;BME280;61787;42.022;23.078;2023-04-04T00:13:03;95388.16;;;8.33;100.00
20015;BME280;61787;42.022;23.078;2023-04-04T00:14:06;95386.59;;;8.32;100.00
20015;BME280;61787;42.022;23.078;2023-04-04T00:15:08;95380.84;;;8.30;100.00
20015;BME280;61787;42.022;23.078;2023-04-04T00:16:09;95372.84;;;8.30;100.00
20015;BME280;61787;42.022;23.078;2023-04-04T00:17:11;95370.19;;;8.30;100.00
20015;BME280;61787;42.022;23.078;2023-04-04T00:18:13;95365.94;;;8.29;100.00
20015;BME280;61787;42.022;23.078;2023-04-04T00:19:15;95369.38;;;8.29;100.00
20015;BME280;61787;42.022;23.078;2023-04-04T00:20:18;95361.22;;;8.22;100.00
20015;BME280;61787;42.022;23.078;2023-04-04T00:21:20;95359.66;;;8.21;100.00
20015;BME280;61787;42.022;23.078;2023-04-04T00:22:21;95350.53;;;8.22;100.00
20015;BME280;61787;42.022;23.078;2023-04-04T00:23:23;95345.28;;;8.26;100.00
20015;BME280;61787;42.022;23.078;2023-04-04T00:24:25;95341.84;;;8.25;100.00
20015;BME280;61787;42.022;23.078;2023-04-04T00:25:27;95342.19;;;8.24;100.00
20015;BME280;61787;42.022;23.078;2023-04-04T00:26:28;95340.63;;;8.23;100.00
20015;BME280;61787;42.022;23.078;2023-04-04T00:27:30;95324.28;;;8.24;100.00
20015;BME280;61787;42.022;23.078;2023-04-04T00:28:32;95319.28;;;8.23;100.00
20015;BME280;61787;42.022;23.078;2023-04-04T00:29:34;95315.47;;;8.24;100.00
20015;BME280;61787;42.022;23.078;2023-04-04T00:30:35;95297.56;;;8.24;100.00
20015;BME280;61787;42.022;23.078;2023-04-04T00:31:37;95282.31;;;8.25;100.00
20015;BME280;61787;42.022;23.078;2023-04-04T00:32:39;95277.97;;;8.17;100.00
20015;BME280;61787;42.022;23.078;2023-04-04T00:33:41;95272.91;;;8.11;100.00
20015;BME280;61787;42.022;23.078;2023-04-04T00:34:42;95268.69;;;8.10;100.00
20015;BME280;61787;42.022;23.078;2023-04-04T00:35:47;95260.28;;;8.08;100.00
20015;BME280;61787;42.022;23.078;2023-04-04T00:36:48;95266.31;;;8.05;100.00
20015;BME280;61787;42.022;23.078;2023-04-04T00:37:50;95269.28;;;8.00;100.00
20015;BME280;61787;42.022;23.078;2023-04-04T00:38:52;95270.78;;;7.98;100.00
20015;BME280;61787;42.022;23.078;2023-04-04T00:39:53;95276.88;;;7.98;100.00
20015;BME280;61787;42.022;23.078;2023-04-04T00:40:55;95283.78;;;7.99;100.00
20015;BME280;61787;42.022;23.078;2023-04-04T00:41:57;95289.16;;;8.03;100.00
20015;BME280;61787;42.022;23.078;2023-04-04T00:42:59;95291.50;;;8.04;100.00
20015;BME280;61787;42.022;23.078;2023-04-04T00:44:01;95295.78;;;8.09;100.00
20015;BME280;61787;42.022;23.078;2023-04-04T00:45:05;95303.84;;;8.12;100.00
20015;BME280;61787;42.022;23.078;2023-04-04T00:46:08;95300.94;;;8.21;100.00
20015;BME280;61787;42.022;23.078;2023-04-04T00:47:11;95300.28;;;8.28;100.00
20015;BME280;61787;42.022;23.078;2023-04-04T00:48:26;95295.41;;;8.30;100.00
20015;BME280;61787;42.022;23.078;2023-04-04T00:49:28;95300.75;;;8.30;100.00
20015;BME280;61787;42.022;23.078;2023-04-04T00:50:30;95296.78;;;8.43;100.00
20015;BME280;61787;42.022;23.078;2023-04-04T00:51:32;95301.41;;;8.46;100.00
20015;BME280;61787;42.022;23.078;2023-04-04T00:52:34;95301.59;;;8.57;100.00
20015;BME280;61787;42.022;23.078;2023-04-04T00:53:36;95298.63;;;8.62;100.00
20015;BME280;61787;42.022;23.078;2023-04-04T00:54:38;95299.50;;;8.69;100.00
20015;BME280;61787;42.022;23.078;2023-04-04T00:55:40;95300.34;;;8.73;100.00
20015;BME280;61787;42.022;23.078;2023-04-04T00:56:43;95304.25;;;8.79;100.00
20015;BME280;61787;42.022;23.078;2023-04-04T00:57:45;95301.28;;;8.84;100.00
20015;BME280;61787;42.022;23.078;2023-04-04T00:58:47;95299.03;;;8.86;100.00
20015;BME280;61787;42.022;23.078;2023-04-04T00:59:49;95288.22;;;8.79;100.00
20015;BME280;61787;42.022;23.078;2023-04-04T01:00:51;95293.34;;;8.65;100.00
20015;BME280;61787;42.022;23.078;2023-04-04T01:01:53;95287.78;;;8.51;100.00
20015;BME280;61787;42.022;23.078;2023-04-04T01:02:54;95286.28;;;8.53;100.00
20015;BME280;61787;42.022;23.078;2023-04-04T01:03:57;95289.47;;;8.63;100.00
20015;BME280;61787;42.022;23.078;2023-04-04T01:04:59;95290.66;;;8.65;100.00
20015;BME280;61787;42.022;23.078;2023-04-04T01:06:00;95288.78;;;8.66;100.00
20015;BME280;61787;42.022;23.078;2023-04-04T01:07:03;95284.06;;;8.59;100.00
20015;BME280;61787;42.022;23.078;2023-04-04T01:08:05;95288.59;;;8.55;100.00
20015;BME280;61787;42.022;23.078;2023-04-04T01:09:07;95279.50;;;8.60;100.00
20015;BME280;61787;42.022;23.078;2023-04-04T01:10:09;95285.72;;;8.67;100.00
20015;BME280;61787;42.022;23.078;2023-04-04T01:11:11;95288.88;;;8.73;100.00
20015;BME280;61787;42.022;23.078;2023-04-04T01:12:13;95278.25;;;8.76;100.00
20015;BME280;61787;42.022;23.078;2023-04-04T01:13:15;95274.72;;;8.72;100.00
20015;BME280;61787;42.022;23.078;2023-04-04T01:14:16;95282.66;;;8.65;100.00
20015;BME280;61787;42.022;23.078;2023-04-04T01:15:18;95279.47;;;8.56;100.00
20015;BME280;61787;42.022;23.078;2023-04-04T01:16:20;95290.84;;;8.53;100.00
20015;BME280;61787;42.022;23.078;2023-04-04T01:17:23;95283.19;;;8.51;100.00
20015;BME280;61787;42.022;23.078;2023-04-04T01:18:25;95280.88;;;8.50;100.00
20015;BME280;61787;42.022;23.078;2023-04-04T01:19:32;95284.03;;;8.55;100.00
20015;BME280;61787;42.022;23.078;2023-04-04T01:20:41;95274.63;;;8.65;100.00
20015;BME280;61787;42.022;23.078;2023-04-04T01:21:45;95275.16;;;8.74;100.00
20015;BME280;61787;42.022;23.078;2023-04-04T01:22:48;95273.72;;;8.80;100.00
20015;BME280;61787;42.022;23.078;2023-04-04T01:23:58;95274.59;;;8.88;100.00
20015;BME280;61787;42.022;23.078;2023-04-04T01:25:00;95273.97;;;8.98;100.00
20015;BME280;61787;42.022;23.078;2023-04-04T01:26:03;95271.69;;;8.96;100.00
20015;BME280;61787;42.022;23.078;2023-04-04T01:27:05;95275.19;;;9.01;100.00
20015;BME280;61787;42.022;23.078;2023-04-04T01:28:07;95277.84;;;9.01;100.00
20015;BME280;61787;42.022;23.078;2023-04-04T01:29:09;95274.75;;;8.98;100.00
20015;BME280;61787;42.022;23.078;2023-04-04T01:30:12;95281.25;;;8.97;100.00
20015;BME280;61787;42.022;23.078;2023-04-04T01:31:17;95277.81;;;8.97;100.00
20015;BME280;61787;42.022;23.078;2023-04-04T01:32:50;95278.59;;;8.97;100.00
20015;BME280;61787;42.022;23.078;2023-04-04T01:33:58;95272.94;;;9.03;100.00
20015;BME280;61787;42.022;23.078;2023-04-04T01:35:24;95274.09;;;9.05;100.00
20015;BME280;61787;42.022;23.078;2023-04-04T01:36:35;95276.31;;;8.99;100.00
20015;BME280;61787;42.022;23.078;2023-04-04T01:37:51;95266.22;;;8.89;100.00
20015;BME280;61787;42.022;23.078;2023-04-04T01:40:34;95279.97;;;8.42;100.00
20015;BME280;61787;42.022;23.078;2023-04-04T01:41:38;95285.50;;;8.30;100.00
20015;BME280;61787;42.022;23.078;2023-04-04T01:42:40;95283.16;;;8.29;100.00
20015;BME280;61787;42.022;23.078;2023-04-04T01:43:44;95279.09;;;8.35;100.00
20015;BME280;61787;42.022;23.078;2023-04-04T01:44:47;95283.03;;;8.41;100.00
20015;BME280;61787;42.022;23.078;2023-04-04T01:45:48;95274.03;;;8.52;100.00
20015;BME280;61787;42.022;23.078;2023-04-04T01:46:54;95275.75;;;8.64;100.00
20015;BME280;61787;42.022;23.078;2023-04-04T01:47:56;95276.72;;;8.75;100.00
20015;BME280;61787;42.022;23.078;2023-04-04T01:48:58;95274.56;;;8.84;100.00
20015;BME280;61787;42.022;23.078;2023-04-04T01:50:00;95270.13;;;8.95;100.00
20015;BME280;61787;42.022;23.078;2023-04-04T01:51:02;95269.47;;;9.02;100.00
20015;BME280;61787;42.022;23.078;2023-04-04T01:52:04;95273.38;;;9.08;100.00
20015;BME280;61787;42.022;23.078;2023-04-04T01:53:07;95271.16;;;9.14;100.00
20015;BME280;61787;42.022;23.078;2023-04-04T01:54:09;95270.00;;;9.11;100.00
20015;BME280;61787;42.022;23.078;2023-04-04T01:55:11;95266.44;;;9.04;100.00
20015;BME280;61787;42.022;23.078;2023-04-04T01:56:12;95266.22;;;8.89;100.00
20015;BME280;61787;42.022;23.078;2023-04-04T01:57:14;95279.03;;;8.77;100.00
20015;BME280;61787;42.022;23.078;2023-04-04T01:58:16;95265.19;;;8.71;100.00
20015;BME280;61787;42.022;23.078;2023-04-04T01:59:17;95264.94;;;8.57;100.00
20015;BME280;61787;42.022;23.078;2023-04-04T02:00:19;95270.25;;;8.53;100.00
20015;BME280;61787;42.022;23.078;2023-04-04T02:01:21;95266.81;;;8.53;100.00
20015;BME280;61787;42.022;23.078;2023-04-04T02:02:23;95270.25;;;8.53;100.00
20015;BME280;61787;42.022;23.078;2023-04-04T02:03:24;95270.88;;;8.47;100.00
20015;BME280;61787;42.022;23.078;2023-04-04T02:04:27;95271.91;;;8.39;100.00
20015;BME280;61787;42.022;23.078;2023-04-04T02:05:30;95270.31;;;8.34;100.00
20015;BME280;61787;42.022;23.078;2023-04-04T02:06:32;95270.72;;;8.36;100.00
20015;BME280;61787;42.022;23.078;2023-04-04T02:07:34;95269.28;;;8.42;100.00
20015;BME280;61787;42.022;23.078;2023-04-04T02:08:35;95267.81;;;8.45;100.00
20015;BME280;61787;42.022;23.078;2023-04-04T02:09:38;95273.56;;;8.47;100.00
20015;BME280;61787;42.022;23.078;2023-04-04T02:10:40;95266.28;;;8.44;100.00
20015;BME280;61787;42.022;23.078;2023-04-04T02:11:42;95265.44;;;8.40;100.00
20015;BME280;61787;42.022;23.078;2023-04-04T02:12:44;95267.59;;;8.31;100.00
20015;BME280;61787;42.022;23.078;2023-04-04T02:13:46;95263.38;;;8.30;100.00
20015;BME280;61787;42.022;23.078;2023-04-04T02:14:47;95264.41;;;8.25;100.00
20015;BME280;61787;42.022;23.078;2023-04-04T02:15:50;95264.75;;;8.24;100.00
20015;BME280;61787;42.022;23.078;2023-04-04T02:16:52;95259.06;;;8.25;100.00
20015;BME280;61787;42.022;23.078;2023-04-04T02:17:53;95259.47;;;8.27;100.00
20015;BME280;61787;42.022;23.078;2023-04-04T02:18:55;95260.69;;;8.30;100.00
20015;BME280;61787;42.022;23.078;2023-04-04T02:19:57;95260.31;;;8.31;100.00
20015;BME280;61787;42.022;23.078;2023-04-04T02:20:58;95263.00;;;8.31;100.00
20015;BME280;61787;42.022;23.078;2023-04-04T02:22:00;95262.25;;;8.31;100.00
20015;BME280;61787;42.022;23.078;2023-04-04T02:23:01;95261.53;;;8.34;100.00
20015;BME280;61787;42.022;23.078;2023-04-04T02:24:03;95259.97;;;8.33;100.00
20015;BME280;61787;42.022;23.078;2023-04-04T02:25:05;95257.72;;;8.35;100.00
20015;BME280;61787;42.022;23.078;2023-04-04T02:26:07;95257.00;;;8.38;100.00
20015;BME280;61787;42.022;23.078;2023-04-04T02:27:08;95252.50;;;8.42;100.00
20015;BME280;61787;42.022;23.078;2023-04-04T02:28:10;95254.81;;;8.43;100.00
20015;BME280;61787;42.022;23.078;2023-04-04T02:29:12;95249.53;;;8.47;100.00
20015;BME280;61787;42.022;23.078;2023-04-04T02:30:14;95246.63;;;8.55;100.00
20015;BME280;61787;42.022;23.078;2023-04-04T02:31:15;95248.28;;;8.64;100.00
20015;BME280;61787;42.022;23.078;2023-04-04T02:32:17;95246.88;;;8.73;100.00
20015;BME280;61787;42.022;23.078;2023-04-04T02:33:19;95251.63;;;8.83;100.00
20015;BME280;61787;42.022;23.078;2023-04-04T02:34:20;95255.97;;;8.91;100.00
20015;BME280;61787;42.022;23.078;2023-04-04T02:35:22;95253.38;;;8.98;100.00
20015;BME280;61787;42.022;23.078;2023-04-04T02:36:24;95249.69;;;9.07;100.00
20015;BME280;61787;42.022;23.078;2023-04-04T02:37:25;95248.25;;;9.13;100.00
20015;BME280;61787;42.022;23.078;2023-04-04T02:38:27;95248.31;;;9.20;100.00
20015;BME280;61787;42.022;23.078;2023-04-04T02:39:28;95257.59;;;9.26;100.00
20015;BME280;61787;42.022;23.078;2023-04-04T02:40:30;95255.00;;;9.33;100.00
20015;BME280;61787;42.022;23.078;2023-04-04T02:41:32;95250.88;;;9.39;100.00
20015;BME280;61787;42.022;23.078;2023-04-04T02:42:33;95250.63;;;9.48;100.00
20015;BME280;61787;42.022;23.078;2023-04-04T02:43:35;95254.53;;;9.57;100.00
20015;BME280;61787;42.022;23.078;2023-04-04T02:44:37;95259.56;;;9.62;100.00
20015;BME280;61787;42.022;23.078;2023-04-04T02:45:38;95261.50;;;9.65;100.00
20015;BME280;61787;42.022;23.078;2023-04-04T02:46:40;95261.19;;;9.70;100.00
20015;BME280;61787;42.022;23.078;2023-04-04T02:47:49;95262.03;;;9.74;100.00
20015;BME280;61787;42.022;23.078;2023-04-04T02:48:50;95260.16;;;9.78;100.00
20015;BME280;61787;42.022;23.078;2023-04-04T02:49:52;95262.41;;;9.76;100.00
20015;BME280;61787;42.022;23.078;2023-04-04T02:50:54;95266.16;;;9.68;100.00
20015;BME280;61787;42.022;23.078;2023-04-04T02:51:56;95266.53;;;9.70;100.00
20015;BME280;61787;42.022;23.078;2023-04-04T02:52:59;95258.19;;;9.75;100.00
20015;BME280;61787;42.022;23.078;2023-04-04T02:54:01;95264.00;;;9.81;100.00
20015;BME280;61787;42.022;23.078;2023-04-04T02:55:04;95259.84;;;9.83;100.00
20015;BME280;61787;42.022;23.078;2023-04-04T02:56:06;95262.13;;;9.85;100.00
20015;BME280;61787;42.022;23.078;2023-04-04T02:57:07;95264.09;;;9.88;100.00
20015;BME280;61787;42.022;23.078;2023-04-04T02:58:09;95262.19;;;9.89;100.00
20015;BME280;61787;42.022;23.078;2023-04-04T02:59:11;95266.78;;;9.92;100.00
20015;BME280;61787;42.022;23.078;2023-04-04T03:00:12;95266.06;;;9.95;100.00
20015;BME280;61787;42.022;23.078;2023-04-04T03:01:14;95264.19;;;9.99;100.00
20015;BME280;61787;42.022;23.078;2023-04-04T03:02:16;95268.44;;;10.00;100.00
20015;BME280;61787;42.022;23.078;2023-04-04T03:03:18;95266.91;;;10.02;100.00
20015;BME280;61787;42.022;23.078;2023-04-04T03:04:20;95273.84;;;10.07;100.00
20015;BME280;61787;42.022;23.078;2023-04-04T03:05:25;95271.59;;;10.09;100.00
20015;BME280;61787;42.022;23.078;2023-04-04T03:06:30;95276.19;;;10.12;100.00
20015;BME280;61787;42.022;23.078;2023-04-04T03:07:33;95275.47;;;10.15;100.00
20015;BME280;61787;42.022;23.078;2023-04-04T03:08:34;95271.66;;;10.16;100.00
20015;BME280;61787;42.022;23.078;2023-04-04T03:09:36;95271.34;;;10.21;100.00
20015;BME280;61787;42.022;23.078;2023-04-04T03:10:38;95271.41;;;10.28;100.00
20015;BME280;61787;42.022;23.078;2023-04-04T03:11:40;95268.38;;;10.30;100.00
20015;BME280;61787;42.022;23.078;2023-04-04T03:12:41;95271.00;;;10.26;100.00
20015;BME280;61787;42.022;23.078;2023-04-04T03:13:43;95275.56;;;10.22;100.00
20015;BME280;61787;42.022;23.078;2023-04-04T03:14:44;95274.00;;;10.21;100.00
20015;BME280;61787;42.022;23.078;2023-04-04T03:15:46;95261.78;;;10.20;100.00
20015;BME280;61787;42.022;23.078;2023-04-04T03:16:48;95266.31;;;10.16;100.00
20015;BME280;61787;42.022;23.078;2023-04-04T03:17:50;95274.34;;;10.16;100.00
20015;BME280;61787;42.022;23.078;2023-04-04T03:18:54;95269.75;;;10.16;100.00
20015;BME280;61787;42.022;23.078;2023-04-04T03:19:55;95276.25;;;10.15;100.00
20015;BME280;61787;42.022;23.078;2023-04-04T03:20:57;95276.25;;;10.15;100.00
20015;BME280;61787;42.022;23.078;2023-04-04T03:21:59;95273.13;;;10.10;100.00
20015;BME280;61787;42.022;23.078;2023-04-04T03:23:00;95276.13;;;10.05;100.00
20015;BME280;61787;42.022;23.078;2023-04-04T03:24:02;95281.50;;;10.05;100.00
20015;BME280;61787;42.022;23.078;2023-04-04T03:25:04;95284.56;;;10.07;100.00
20015;BME280;61787;42.022;23.078;2023-04-04T03:26:06;95285.75;;;10.09;100.00
20015;BME280;61787;42.022;23.078;2023-04-04T03:27:07;95279.28;;;10.14;100.00
20015;BME280;61787;42.022;23.078;2023-04-04T03:28:09;95278.56;;;10.17;100.00
20015;BME280;61787;42.022;23.078;2023-04-04T03:29:11;95276.31;;;10.19;100.00
20015;BME280;61787;42.022;23.078;2023-04-04T03:30:12;95277.09;;;10.23;100.00
20015;BME280;61787;42.022;23.078;2023-04-04T03:31:14;95269.06;;;10.23;100.00
20015;BME280;61787;42.022;23.078;2023-04-04T03:32:15;95273.66;;;10.22;100.00
20015;BME280;61787;42.022;23.078;2023-04-04T03:33:18;95269.47;;;10.25;100.00
20015;BME280;61787;42.022;23.078;2023-04-04T03:34:20;95271.41;;;10.28;100.00
20015;BME280;61787;42.022;23.078;2023-04-04T03:35:21;95272.53;;;10.27;100.00
20015;BME280;61787;42.022;23.078;2023-04-04T03:36:23;95274.78;;;10.21;100.00
20015;BME280;61787;42.022;23.078;2023-04-04T03:37:24;95272.44;;;10.16;100.00
20015;BME280;61787;42.022;23.078;2023-04-04T03:38:26;95281.88;;;10.07;100.00
20015;BME280;61787;42.022;23.078;2023-04-04T03:39:28;95280.59;;;9.94;100.00
20015;BME280;61787;42.022;23.078;2023-04-04T03:40:32;95282.16;;;9.95;100.00
20015;BME280;61787;42.022;23.078;2023-04-04T03:41:34;95282.47;;;9.90;100.00
20015;BME280;61787;42.022;23.078;2023-04-04T03:42:36;95283.50;;;9.81;100.00
20015;BME280;61787;42.022;23.078;2023-04-04T03:43:38;95290.28;;;9.72;100.00
20015;BME280;61787;42.022;23.078;2023-04-04T03:44:41;95287.28;;;9.77;100.00
20015;BME280;61787;42.022;23.078;2023-04-04T03:45:42;95287.31;;;9.80;100.00
20015;BME280;61787;42.022;23.078;2023-04-04T03:46:44;95294.63;;;9.83;100.00
20015;BME280;61787;42.022;23.078;2023-04-04T03:47:46;95290.41;;;9.82;100.00
20015;BME280;61787;42.022;23.078;2023-04-04T03:48:48;95287.31;;;9.80;100.00
20015;BME280;61787;42.022;23.078;2023-04-04T03:49:50;95291.09;;;9.76;100.00
20015;BME280;61787;42.022;23.078;2023-04-04T03:50:52;95301.00;;;9.75;100.00
20015;BME280;61787;42.022;23.078;2023-04-04T03:51:54;95304.84;;;9.74;100.00
20015;BME280;61787;42.022;23.078;2023-04-04T03:52:55;95303.31;;;9.73;100.00
20015;BME280;61787;42.022;23.078;2023-04-04T03:53:58;95302.91;;;9.75;100.00
20015;BME280;61787;42.022;23.078;2023-04-04T03:55:00;95294.22;;;9.81;100.00
20015;BME280;61787;42.022;23.078;2023-04-04T03:56:02;95298.47;;;9.86;100.00
20015;BME280;61787;42.022;23.078;2023-04-04T03:57:04;95294.69;;;9.91;100.00
20015;BME280;61787;42.022;23.078;2023-04-04T03:58:06;95298.22;;;9.95;100.00
20015;BME280;61787;42.022;23.078;2023-04-04T03:59:07;95299.72;;;9.96;100.00
20015;BME280;61787;42.022;23.078;2023-04-04T04:00:10;95293.56;;;9.92;100.00
20015;BME280;61787;42.022;23.078;2023-04-04T04:01:12;95291.22;;;9.87;100.00
20015;BME280;61787;42.022;23.078;2023-04-04T04:02:14;95296.53;;;9.83;100.00
20015;BME280;61787;42.022;23.078;2023-04-04T04:03:15;95297.22;;;9.76;100.00
20015;BME280;61787;42.022;23.078;2023-04-04T04:04:17;95299.72;;;9.62;100.00
20015;BME280;61787;42.022;23.078;2023-04-04T04:05:19;95291.59;;;9.55;100.00
20015;BME280;61787;42.022;23.078;2023-04-04T04:06:21;95298.50;;;9.56;100.00
20015;BME280;61787;42.022;23.078;2023-04-04T04:07:22;95293.09;;;9.53;100.00
20015;BME280;61787;42.022;23.078;2023-04-04T04:08:24;95303.69;;;9.46;100.00
20015;BME280;61787;42.022;23.078;2023-04-04T04:09:25;95305.09;;;9.36;100.00
20015;BME280;61787;42.022;23.078;2023-04-04T04:10:27;95301.91;;;9.27;100.00
20015;BME280;61787;42.022;23.078;2023-04-04T04:11:29;95300.34;;;9.22;100.00
20015;BME280;61787;42.022;23.078;2023-04-04T04:12:31;95301.81;;;9.20;100.00
20015;BME280;61787;42.022;23.078;2023-04-04T04:13:33;95306.00;;;9.17;100.00
20015;BME280;61787;42.022;23.078;2023-04-04T04:14:36;95307.16;;;9.20;100.00
20015;BME280;61787;42.022;23.078;2023-04-04T04:15:38;95308.69;;;9.21;100.00
20015;BME280;61787;42.022;23.078;2023-04-04T04:16:39;95303.78;;;9.23;100.00
20015;BME280;61787;42.022;23.078;2023-04-04T04:17:41;95317.53;;;9.25;100.00
20015;BME280;61787;42.022;23.078;2023-04-04T04:18:43;95316.41;;;9.26;100.00
20015;BME280;61787;42.022;23.078;2023-04-04T04:19:45;95319.50;;;9.28;100.00
20015;BME280;61787;42.022;23.078;2023-04-04T04:20:46;95318.78;;;9.31;100.00
20015;BME280;61787;42.022;23.078;2023-04-04T04:21:48;95318.78;;;9.31;100.00
20015;BME280;61787;42.022;23.078;2023-04-04T04:22:50;95322.59;;;9.30;100.00
20015;BME280;61787;42.022;23.078;2023-04-04T04:23:54;95320.34;;;9.32;100.00
20015;BME280;61787;42.022;23.078;2023-04-04T04:24:56;95321.16;;;9.36;100.00
20015;BME280;61787;42.022;23.078;2023-04-04T04:25:57;95318.97;;;9.45;100.00
20015;BME280;61787;42.022;23.078;2023-04-04T04:26:59;95319.13;;;9.56;100.00
20015;BME280;61787;42.022;23.078;2023-04-04T04:28:00;95325.25;;;9.56;100.00
20015;BME280;61787;42.022;23.078;2023-04-04T04:29:02;95322.53;;;9.53;100.00
20015;BME280;61787;42.022;23.078;2023-04-04T04:30:04;95320.56;;;9.50;100.00
20015;BME280;61787;42.022;23.078;2023-04-04T04:31:07;95323.63;;;9.48;100.00
20015;BME280;61787;42.022;23.078;2023-04-04T04:32:09;95322.03;;;9.44;100.00
20015;BME280;61787;42.022;23.078;2023-04-04T04:33:11;95317.34;;;9.37;100.00
20015;BME280;61787;42.022;23.078;2023-04-04T04:34:13;95326.03;;;9.30;100.00
20015;BME280;61787;42.022;23.078;2023-04-04T04:35:14;95325.09;;;9.19;100.00
20015;BME280;61787;42.022;23.078;2023-04-04T04:36:16;95322.22;;;9.05;100.00
20015;BME280;61787;42.022;23.078;2023-04-04T04:37:18;95327.81;;;8.96;100.00
20015;BME280;61787;42.022;23.078;2023-04-04T04:38:20;95327.41;;;8.94;100.00
20015;BME280;61787;42.022;23.078;2023-04-04T04:39:21;95328.22;;;8.98;100.00
20015;BME280;61787;42.022;23.078;2023-04-04T04:40:23;95329.41;;;9.01;100.00
20015;BME280;61787;42.022;23.078;2023-04-04T04:41:24;95337.09;;;9.03;100.00
20015;BME280;61787;42.022;23.078;2023-04-04T04:42:26;95329.88;;;9.07;100.00
20015;BME280;61787;42.022;23.078;2023-04-04T04:43:29;95333.81;;;9.13;100.00
20015;BME280;61787;42.022;23.078;2023-04-04T04:44:31;95334.31;;;9.22;100.00
20015;BME280;61787;42.022;23.078;2023-04-04T04:45:32;95341.72;;;9.32;100.00
20015;BME280;61787;42.022;23.078;2023-04-04T04:46:34;95332.66;;;9.40;100.00
20015;BME280;61787;42.022;23.078;2023-04-04T04:47:36;95335.09;;;9.49;100.00
20015;BME280;61787;42.022;23.078;2023-04-04T04:48:37;95337.06;;;9.55;100.00
20015;BME280;61787;42.022;23.078;2023-04-04T04:49:39;95336.06;;;9.63;100.00
20015;BME280;61787;42.022;23.078;2023-04-04T04:50:45;95326.19;;;9.71;100.00
20015;BME280;61787;42.022;23.078;2023-04-04T04:51:47;95329.75;;;9.78;100.00
20015;BME280;61787;42.022;23.078;2023-04-04T04:52:49;95330.91;;;9.81;100.00
20015;BME280;61787;42.022;23.078;2023-04-04T04:53:54;95329.38;;;9.80;100.00
20015;BME280;61787;42.022;23.078;2023-04-04T04:54:56;95334.78;;;9.83;100.00
20015;BME280;61787;42.022;23.078;2023-04-04T04:55:57;95334.78;;;9.83;100.00
20015;BME280;61787;42.022;23.078;2023-04-04T04:56:59;95339.41;;;9.87;100.00
20015;BME280;61787;42.022;23.078;2023-04-04T04:58:01;95339.81;;;9.89;100.00
20015;BME280;61787;42.022;23.078;2023-04-04T04:59:03;95343.31;;;9.93;100.00
20015;BME280;61787;42.022;23.078;2023-04-04T05:00:10;95347.91;;;9.96;100.00
20015;BME280;61787;42.022;23.078;2023-04-04T05:01:12;95341.44;;;9.97;100.00
20015;BME280;61787;42.022;23.078;2023-04-04T05:02:14;95345.66;;;9.98;100.00
20015;BME280;61787;42.022;23.078;2023-04-04T05:03:16;95339.56;;;10.01;100.00
20015;BME280;61787;42.022;23.078;2023-04-04T05:04:18;95340.41;;;10.05;100.00
20015;BME280;61787;42.022;23.078;2023-04-04T05:05:20;95344.66;;;10.09;100.00
20015;BME280;61787;42.022;23.078;2023-04-04T05:06:21;95342.00;;;10.13;100.00
20015;BME280;61787;42.022;23.078;2023-04-04T05:07:23;95343.63;;;10.17;100.00
20015;BME280;61787;42.022;23.078;2023-04-04T05:08:24;95343.66;;;10.21;100.00
20015;BME280;61787;42.022;23.078;2023-04-04T05:09:26;95342.94;;;10.24;100.00
20015;BME280;61787;42.022;23.078;2023-04-04T05:10:29;95346.75;;;10.23;100.00
20015;BME280;61787;42.022;23.078;2023-04-04T05:11:30;95342.06;;;10.16;100.00
20015;BME280;61787;42.022;23.078;2023-04-04T05:12:32;95344.28;;;10.11;100.00
20015;BME280;61787;42.022;23.078;2023-04-04T05:13:34;95343.88;;;10.09;100.00
20015;BME280;61787;42.022;23.078;2023-04-04T05:14:36;95345.81;;;10.12;100.00
20015;BME280;61787;42.022;23.078;2023-04-04T05:15:37;95344.41;;;10.18;100.00
20015;BME280;61787;42.022;23.078;2023-04-04T05:16:39;95349.44;;;10.23;100.00
20015;BME280;61787;42.022;23.078;2023-04-04T05:17:43;95348.31;;;10.27;100.00
20015;BME280;61787;42.022;23.078;2023-04-04T05:18:45;95354.91;;;10.34;100.00
20015;BME280;61787;42.022;23.078;2023-04-04T05:19:47;95350.00;;;10.39;100.00
20015;BME280;61787;42.022;23.078;2023-04-04T05:20:58;95356.16;;;10.43;100.00
20015;BME280;61787;42.022;23.078;2023-04-04T05:21:59;95355.44;;;10.46;100.00
20015;BME280;61787;42.022;23.078;2023-04-04T05:23:01;95357.44;;;10.56;100.00
20015;BME280;61787;42.022;23.078;2023-04-04T05:24:02;95356.28;;;10.57;100.00
20015;BME280;61787;42.022;23.078;2023-04-04T05:25:04;95352.50;;;10.62;99.91
20015;BME280;61787;42.022;23.078;2023-04-04T05:26:06;95354.81;;;10.63;99.43
20015;BME280;61787;42.022;23.078;2023-04-04T05:27:08;95358.28;;;10.64;99.41